Graham, Florida
Current Conditions -  °F | °C
As of 7:15 AM on Friday 28 Nov 2014 (Local Time) from K42J Reporting Station
Clear Clear  
Wind Chill: 28°   Ceiling: Unl
Heat Index: 34°   Visibility: 7mi
Dew Point: 32°   Wind: 7mph
Humidity: 93%   Direction: 10°N
Pressure: 30.35"   Gusts: NA
Location:  29.86°N, 82.22°W
Report Text: K42J 281215Z AUTO 01006KT 7SM CLR 01/00 A3035 RMK AO1 TSNO
Loading
Personal Weather Stations






























Interactive Weather Map New forecast layout! Learn more

10-Day Weather Forecast

Advertisements
Track Severe Weather on mobile